Delaplane, Virginia
Current Conditions -  °F | °C
As of 1:35 PM on Sunday 21 Dec 2014 (Local Time) from KFRR Reporting Station
Clear Clear  
Wind Chill: 37°   Ceiling: Unl
Heat Index: 37°   Visibility: 10mi
Dew Point: 27°   Wind: 3mph
Humidity: 65%   Direction: 30°NNE
Pressure: 30.26"   Gusts: NA
Location:  38.87°N, 77.92°W
Report Text: KFRR 211835Z AUTO 03003KT 10SM CLR 03/M03 A3026 RMK AO1
Loading
Personal Weather Stations






























Interactive Weather Map New forecast layout! Learn more

10-Day Weather Forecast

Advertisements
Track Severe Weather on mobile